Time;durP1;ratioP1;P1;durP2;ratioP2;P2;SDS_P1;SDS_P2;PMS_P1;PMS_P2;Temp;Humidity;BMP_temperature;BMP_pressure;BME280_temperature;BME280_humidity;BME280_pressure;Samples;Min_cycle;Max_cycle;Signal;HPM_P1;HPM_P2
2022/11/11 07:32:20;;;;;;;7.68;5.15;;;6.10;99.90;;;;;;11469217;23;20501;-74
2022/11/11 07:37:22;;;;;;;10.32;4.90;;;6.10;99.90;;;;;;10205387;29;20056;-76
2022/11/11 07:42:24;;;;;;;8.63;5.07;;;6.20;99.90;;;;;;10175272;29;20574;-75
2022/11/11 07:47:28;;;;;;;10.00;4.93;;;6.30;99.90;;;;;;10164135;29;20091;-75
2022/11/11 07:52:30;;;;;;;9.95;5.28;;;6.40;99.90;;;;;;10214530;28;20040;-75
2022/11/11 07:57:32;;;;;;;8.73;5.35;;;6.40;99.90;;;;;;10208461;29;20048;-75
2022/11/11 08:02:35;;;;;;;8.43;5.15;;;6.40;99.90;;;;;;10176624;29;20541;-73
2022/11/11 08:07:37;;;;;;;9.90;6.38;;;6.60;99.90;;;;;;10174631;29;20052;-75
2022/11/11 08:18:00;;;;;;;8.60;5.60;;;6.90;99.90;;;;;;10129962;29;20337;-75
2022/11/11 08:23:04;;;;;;;12.88;5.93;;;7.10;99.90;;;;;;10131356;29;20060;-73
2022/11/11 08:28:06;;;;;;;12.55;6.47;;;7.00;99.90;;;;;;10132306;29;20060;-76
2022/11/11 08:33:09;;;;;;;10.43;6.22;;;7.10;99.90;;;;;;10160184;29;20474;-72
2022/11/11 08:38:12;;;;;;;8.65;4.97;;;7.20;99.90;;;;;;10169387;29;20060;-73
2022/11/11 08:43:14;;;;;;;15.90;5.88;;;7.30;99.90;;;;;;10145418;29;20067;-73
2022/11/11 08:48:17;;;;;;;10.10;6.00;;;7.40;99.90;;;;;;10129447;29;20474;-74
2022/11/11 08:53:19;;;;;;;8.98;6.13;;;7.30;99.90;;;;;;10130300;29;20088;-75
2022/11/11 08:58:21;;;;;;;8.30;5.22;;;7.50;99.90;;;;;;10129161;29;20155;-75
2022/11/11 09:03:25;;;;;;;8.90;5.55;;;7.50;99.90;;;;;;10133450;29;20056;-74
2022/11/11 09:08:27;;;;;;;9.07;5.63;;;7.60;99.90;;;;;;10137276;29;20048;-74
2022/11/11 09:13:28;;;;;;;10.50;5.88;;;7.80;99.90;;;;;;10136972;29;20091;-75
2022/11/11 09:18:32;;;;;;;11.02;5.97;;;7.80;99.90;;;;;;10138135;29;20076;-75
2022/11/11 09:23:34;;;;;;;12.52;5.70;;;7.90;99.90;;;;;;10140203;29;20112;-74
2022/11/11 09:28:36;;;;;;;11.43;6.10;;;7.90;99.90;;;;;;10138856;29;20424;-76
2022/11/11 09:33:39;;;;;;;10.07;5.53;;;8.00;99.90;;;;;;10138720;29;20088;-73
2022/11/11 09:38:41;;;;;;;10.80;6.05;;;8.20;99.90;;;;;;10138161;29;20108;-76
2022/11/11 09:43:53;;;;;;;8.52;5.75;;;8.30;99.90;;;;;;10172115;29;20049;-74
2022/11/11 09:49:26;;;;;;;9.85;6.35;;;8.40;99.90;;;;;;10184763;29;20060;-77
2022/11/11 09:54:34;;;;;;;10.50;6.38;;;8.60;99.90;;;;;;10148556;29;20052;-74
2022/11/11 09:59:46;;;;;;;9.30;5.90;;;8.80;99.90;;;;;;10140309;29;20456;-74
2022/11/11 10:04:58;;;;;;;10.30;6.38;;;8.90;99.90;;;;;;10136000;29;20395;-75
2022/11/11 10:10:11;;;;;;;10.45;6.25;;;9.10;99.90;;;;;;10142682;29;20185;-75
2022/11/11 10:15:15;;;;;;;9.38;5.95;;;9.20;99.90;;;;;;10143826;29;20422;-74
2022/11/11 10:20:26;;;;;;;13.73;6.57;;;9.40;99.90;;;;;;10135660;29;20062;-75
2022/11/11 10:25:28;;;;;;;16.83;6.75;;;9.60;99.90;;;;;;10133815;29;20064;-74
2022/11/11 10:30:32;;;;;;;13.02;6.82;;;9.60;99.90;;;;;;10166885;29;20107;-73
2022/11/11 10:35:37;;;;;;;9.75;6.10;;;9.70;99.90;;;;;;10173818;29;20574;-75
2022/11/11 10:40:44;;;;;;;12.38;6.05;;;9.90;99.90;;;;;;10167400;29;20051;-75
2022/11/11 10:45:54;;;;;;;9.02;6.32;;;10.10;99.90;;;;;;10166165;29;20091;-74
2022/11/11 10:51:02;;;;;;;10.13;6.25;;;10.20;99.90;;;;;;10172789;29;20048;-74
2022/11/11 10:56:15;;;;;;;8.60;5.90;;;10.40;99.90;;;;;;10169049;29;20086;-75
2022/11/11 11:01:33;;;;;;;10.45;6.07;;;10.40;99.90;;;;;;10163596;29;20095;-77
2022/11/11 11:06:41;;;;;;;11.55;5.97;;;10.60;99.90;;;;;;10177251;29;20417;-78
2022/11/11 11:11:50;;;;;;;8.63;5.57;;;10.70;99.90;;;;;;10170877;29;20060;-74
2022/11/11 11:16:55;;;;;;;9.73;5.50;;;10.90;99.90;;;;;;10172305;29;20150;-76
2022/11/11 11:22:01;;;;;;;7.25;4.88;;;11.00;99.90;;;;;;10143047;29;20049;-76
2022/11/11 11:27:06;;;;;;;8.40;5.13;;;11.10;99.90;;;;;;10140510;29;20044;-76
2022/11/11 11:32:16;;;;;;;8.18;4.88;;;11.30;99.90;;;;;;10169035;29;20080;-75
2022/11/11 11:37:21;;;;;;;9.80;4.82;;;11.30;99.90;;;;;;10135259;29;20076;-75
2022/11/11 11:42:32;;;;;;;9.60;5.05;;;11.50;99.90;;;;;;10136495;29;20057;-76
2022/11/11 11:47:46;;;;;;;7.45;4.70;;;11.80;99.90;;;;;;10136253;29;20080;-77
2022/11/11 11:53:04;;;;;;;8.95;4.97;;;12.00;99.90;;;;;;10136556;29;20104;-76
2022/11/11 11:58:27;;;;;;;9.63;4.63;;;12.00;99.90;;;;;;10136001;29;20052;-75
2022/11/11 12:04:11;;;;;;;7.82;4.38;;;12.30;99.90;;;;;;10142234;29;20053;-77
2022/11/11 12:09:27;;;;;;;9.15;4.15;;;12.50;99.90;;;;;;10132774;29;20052;-75
2022/11/11 12:14:45;;;;;;;8.18;3.70;;;12.80;99.90;;;;;;10136223;29;20148;-76
2022/11/11 12:20:00;;;;;;;9.60;3.87;;;13.00;99.90;;;;;;10135322;29;20052;-77
2022/11/11 12:25:18;;;;;;;6.13;3.67;;;13.30;99.90;;;;;;10136397;29;20555;-74
2022/11/11 12:30:27;;;;;;;;;;;13.40;99.90;;;;;;10135288;29;20387;-74
2022/11/11 12:35:43;;;;;;;7.00;3.83;;;13.80;99.90;;;;;;10136977;29;19971;-74
2022/11/11 12:41:00;;;;;;;7.18;4.00;;;14.20;99.90;;;;;;10171891;29;20055;-77
2022/11/11 12:46:12;;;;;;;8.45;3.67;;;14.30;99.90;;;;;;10179680;29;20072;-74
2022/11/11 12:51:27;;;;;;;7.20;3.97;;;14.50;99.90;;;;;;10180894;29;20056;-78
2022/11/11 12:56:39;;;;;;;5.65;3.20;;;14.80;99.90;;;;;;10179358;29;20114;-79
2022/11/11 13:01:56;;;;;;;6.57;3.80;;;15.00;99.90;;;;;;10171343;29;20549;-79
2022/11/11 13:07:22;;;;;;;6.70;3.67;;;15.40;99.90;;;;;;10180049;29;20055;-78
2022/11/11 13:12:32;;;;;;;6.55;3.38;;;15.80;99.40;;;;;;10180287;29;20052;-81
2022/11/11 13:17:34;;;;;;;6.50;3.60;;;16.50;97.80;;;;;;10166735;29;20108;-72
2022/11/11 13:22:36;;;;;;;6.47;3.25;;;17.90;94.90;;;;;;10177067;29;20052;-78
2022/11/11 13:27:48;;;;;;;7.93;3.72;;;18.80;92.70;;;;;;10172618;29;20048;-77
2022/11/11 13:32:57;;;;;;;6.10;3.45;;;20.00;90.20;;;;;;10168412;29;20076;-79
2022/11/11 13:37:59;;;;;;;7.60;3.85;;;21.30;83.30;;;;;;10172015;29;20677;-77
2022/11/11 13:43:04;;;;;;;7.20;3.88;;;21.20;79.30;;;;;;10172423;29;20623;-80
2022/11/11 13:48:07;;;;;;;9.88;4.00;;;20.50;80.20;;;;;;10170768;29;20508;-78
2022/11/11 13:53:16;;;;;;;7.78;3.65;;;20.70;80.70;;;;;;10170738;29;20104;-78
2022/11/11 13:58:25;;;;;;;7.10;3.65;;;21.00;79.50;;;;;;10168310;29;20095;-75
2022/11/11 14:03:37;;;;;;;7.82;3.95;;;20.90;79.00;;;;;;10179174;29;20060;-78
2022/11/11 14:08:55;;;;;;;6.93;3.83;;;21.30;77.00;;;;;;10175392;29;20071;-75
2022/11/11 14:14:37;;;;;;;6.35;3.70;;;22.10;74.10;;;;;;10167189;29;20048;-79
2022/11/11 14:19:41;;;;;;;7.38;3.65;;;21.60;74.30;;;;;;10154598;29;20084;-79
2022/11/11 14:24:45;;;;;;;8.27;4.38;;;21.40;74.20;;;;;;10164653;29;20075;-75
2022/11/11 14:29:50;;;;;;;6.03;3.60;;;21.60;74.00;;;;;;10171707;29;20068;-80
2022/11/11 14:35:10;;;;;;;8.05;4.00;;;21.80;73.00;;;;;;10170471;29;20060;-80
2022/11/11 14:40:15;;;;;;;6.90;3.65;;;22.00;72.70;;;;;;10151203;29;20115;-79
2022/11/11 14:46:00;;;;;;;8.02;4.07;;;21.80;72.10;;;;;;10172919;29;20092;-79
2022/11/11 14:51:03;;;;;;;8.60;4.25;;;21.30;74.20;;;;;;10172467;29;20057;-75
2022/11/11 14:56:15;;;;;;;10.18;4.18;;;20.70;75.40;;;;;;10192578;29;20036;-75
2022/11/11 15:01:19;;;;;;;8.45;4.43;;;20.20;76.80;;;;;;10214471;29;20056;-79
2022/11/11 15:06:28;;;;;;;9.35;5.00;;;19.80;76.80;;;;;;10186541;29;20512;-79
2022/11/11 15:11:35;;;;;;;9.57;4.40;;;19.50;78.30;;;;;;10174105;29;20056;-77
2022/11/11 15:17:13;;;;;;;10.13;4.57;;;19.30;79.70;;;;;;10200924;29;20059;-77
2022/11/11 15:22:44;;;;;;;9.23;4.90;;;18.70;82.10;;;;;;10197622;29;20064;-77
2022/11/11 15:27:55;;;;;;;9.20;4.18;;;18.10;84.70;;;;;;10178220;29;20069;-76
2022/11/11 15:33:06;;;;;;;7.78;4.15;;;17.30;88.00;;;;;;10185463;29;20100;-76
2022/11/11 15:38:14;;;;;;;12.40;4.53;;;16.60;90.50;;;;;;10170301;29;20052;-80
2022/11/11 15:43:21;;;;;;;9.27;5.45;;;16.00;91.60;;;;;;10168093;29;20150;-79
2022/11/11 15:48:25;;;;;;;8.93;3.92;;;15.60;93.10;;;;;;10168258;29;20115;-78
2022/11/11 15:53:28;;;;;;;9.98;3.88;;;15.10;94.80;;;;;;10169404;29;20084;-81
2022/11/11 15:58:32;;;;;;;12.30;4.45;;;14.70;96.40;;;;;;10152518;29;20056;-76
2022/11/11 16:03:40;;;;;;;11.70;4.45;;;14.40;97.70;;;;;;10141035;29;20085;-78
2022/11/11 16:08:46;;;;;;;6.63;3.58;;;14.10;99.20;;;;;;10158447;29;20064;-79
2022/11/11 16:13:53;;;;;;;7.68;3.60;;;13.70;99.90;;;;;;10175264;29;20059;-80
2022/11/11 16:19:01;;;;;;;11.95;4.70;;;13.40;99.90;;;;;;10154306;29;20155;-77
2022/11/11 16:24:19;;;;;;;9.93;4.45;;;13.10;99.90;;;;;;10153120;29;20387;-76
2022/11/11 16:29:24;;;;;;;13.88;8.23;;;12.90;99.90;;;;;;10174379;29;20091;-77
2022/11/11 16:34:43;;;;;;;7.82;3.90;;;12.80;99.90;;;;;;10172520;29;20060;-76
2022/11/11 16:39:47;;;;;;;11.95;5.50;;;12.70;99.90;;;;;;10174443;29;20053;-76
2022/11/11 16:44:55;;;;;;;11.45;6.10;;;12.60;99.90;;;;;;10170083;29;20079;-77
2022/11/11 16:50:04;;;;;;;8.88;4.50;;;12.50;99.90;;;;;;10157381;29;20052;-77
2022/11/11 16:55:10;;;;;;;9.38;4.50;;;12.40;99.90;;;;;;10170514;29;20048;-76
2022/11/11 17:00:17;;;;;;;10.65;4.60;;;12.30;99.90;;;;;;10161084;29;20051;-79
2022/11/11 17:05:19;;;;;;;9.23;4.32;;;12.10;99.90;;;;;;10161378;29;20052;-80
2022/11/11 17:10:27;;;;;;;11.48;4.68;;;11.90;99.90;;;;;;10172418;29;20086;-77
2022/11/11 17:15:28;;;;;;;9.02;5.63;;;11.70;99.90;;;;;;10180751;29;20062;-81
2022/11/11 17:20:30;;;;;;;8.45;4.30;;;11.70;99.90;;;;;;10173779;29;20044;-78
2022/11/11 17:25:34;;;;;;;8.05;3.92;;;11.50;99.90;;;;;;10160508;29;20748;-75
2022/11/11 17:30:36;;;;;;;9.43;4.40;;;11.40;99.90;;;;;;10171898;29;20637;-77
2022/11/11 17:35:38;;;;;;;8.88;4.50;;;11.40;99.90;;;;;;10169528;29;20074;-77
2022/11/11 17:40:46;;;;;;;12.07;5.22;;;11.20;99.90;;;;;;10170257;29;20056;-74
2022/11/11 17:45:48;;;;;;;9.18;4.60;;;11.10;99.90;;;;;;10173126;29;20058;-77
2022/11/11 17:50:49;;;;;;;7.88;4.80;;;11.00;99.90;;;;;;10171175;29;20052;-75
2022/11/11 17:55:53;;;;;;;7.90;4.57;;;10.90;99.90;;;;;;10166118;29;20052;-75
2022/11/11 18:00:55;;;;;;;10.02;5.57;;;10.50;99.90;;;;;;10133115;29;20060;-75
2022/11/11 18:05:57;;;;;;;10.15;5.85;;;10.30;99.90;;;;;;10155045;29;20450;-77
2022/11/11 18:11:01;;;;;;;8.93;5.20;;;10.50;99.90;;;;;;10172320;29;20502;-74
2022/11/11 18:16:04;;;;;;;11.40;6.72;;;10.40;99.90;;;;;;10154846;29;20264;-75
2022/11/11 18:21:08;;;;;;;13.93;7.30;;;10.50;99.90;;;;;;10172146;29;20490;-77
2022/11/11 18:26:11;;;;;;;13.32;9.23;;;10.40;99.90;;;;;;10166044;29;20059;-76
2022/11/11 18:31:15;;;;;;;12.23;6.13;;;10.40;99.90;;;;;;10168545;29;20067;-77
2022/11/11 18:36:20;;;;;;;14.15;7.15;;;10.40;99.90;;;;;;10167519;29;20056;-74
2022/11/11 18:41:24;;;;;;;13.77;7.70;;;10.50;99.90;;;;;;10166769;29;20068;-77
2022/11/11 18:46:29;;;;;;;12.35;6.22;;;10.50;99.90;;;;;;10169726;29;20052;-78
2022/11/11 18:51:33;;;;;;;11.27;6.63;;;10.30;99.90;;;;;;10166968;29;20048;-75
2022/11/11 18:56:38;;;;;;;12.02;6.22;;;10.10;99.90;;;;;;10171236;29;20485;-75
2022/11/11 19:01:42;;;;;;;10.32;6.13;;;10.00;99.90;;;;;;10167751;29;20126;-77
2022/11/11 19:06:44;;;;;;;10.85;5.75;;;9.90;99.90;;;;;;10169169;29;20085;-76
2022/11/11 19:11:47;;;;;;;10.85;6.68;;;9.90;99.90;;;;;;10171558;29;20054;-76
2022/11/11 19:16:49;;;;;;;11.45;6.25;;;9.90;99.90;;;;;;10186741;29;20060;-75
2022/11/11 19:21:51;;;;;;;10.23;5.65;;;9.70;99.90;;;;;;10198511;29;20065;-76
2022/11/11 19:26:54;;;;;;;11.43;5.70;;;9.70;99.90;;;;;;10213660;29;20068;-75
2022/11/11 19:31:56;;;;;;;13.18;7.25;;;9.70;99.90;;;;;;10183150;29;21114;-74
2022/11/11 19:36:58;;;;;;;24.20;10.18;;;9.80;99.90;;;;;;10170106;29;20107;-75
2022/11/11 19:42:01;;;;;;;13.75;8.77;;;9.60;99.90;;;;;;10168520;29;20458;-75
2022/11/11 19:47:04;;;;;;;16.70;8.95;;;9.50;99.90;;;;;;10165877;29;20075;-77
2022/11/11 19:52:06;;;;;;;15.10;8.05;;;9.40;99.90;;;;;;10167435;29;20447;-76
2022/11/11 19:57:09;;;;;;;15.48;7.78;;;9.40;99.90;;;;;;10168673;29;20502;-78
2022/11/11 20:02:11;;;;;;;12.82;7.30;;;9.40;99.90;;;;;;10167938;29;20048;-78
2022/11/11 20:07:13;;;;;;;13.52;8.20;;;9.40;99.90;;;;;;10169090;29;20459;-79
2022/11/11 20:12:16;;;;;;;16.17;9.10;;;9.40;99.90;;;;;;10169612;29;20060;-77
2022/11/11 20:17:18;;;;;;;21.17;12.77;;;9.40;99.90;;;;;;10168953;29;20087;-75
2022/11/11 20:22:20;;;;;;;20.48;12.35;;;9.30;99.90;;;;;;10168021;29;20080;-75
2022/11/11 20:27:23;;;;;;;13.98;8.45;;;9.20;99.90;;;;;;10139024;29;20052;-74
2022/11/11 20:32:26;;;;;;;17.50;11.95;;;9.00;99.90;;;;;;10149854;29;20085;-74
2022/11/11 20:37:28;;;;;;;14.25;8.98;;;8.90;99.90;;;;;;10167769;29;20497;-74
2022/11/11 20:42:32;;;;;;;17.75;10.50;;;8.80;99.90;;;;;;10168175;29;20052;-75
2022/11/11 20:47:33;;;;;;;16.20;9.45;;;8.90;99.90;;;;;;10128221;29;20049;-74
2022/11/11 20:52:35;;;;;;;13.38;8.75;;;8.90;99.90;;;;;;10142944;29;20084;-77
2022/11/11 20:57:39;;;;;;;14.27;8.43;;;8.90;99.90;;;;;;10169066;29;20076;-75
2022/11/11 21:02:40;;;;;;;13.48;8.68;;;8.90;99.90;;;;;;10172661;29;20529;-76
2022/11/11 21:07:42;;;;;;;12.88;8.75;;;9.00;99.90;;;;;;10175816;29;20060;-75
2022/11/11 21:12:46;;;;;;;16.35;9.23;;;8.90;99.90;;;;;;10170051;29;20056;-76
2022/11/11 21:17:48;;;;;;;14.18;8.93;;;8.90;99.90;;;;;;10172835;29;20079;-74
2022/11/11 21:22:52;;;;;;;17.90;11.13;;;8.80;99.90;;;;;;10174723;29;20135;-74
2022/11/11 21:27:55;;;;;;;13.40;8.43;;;8.70;99.90;;;;;;10152331;29;20052;-76
2022/11/11 21:32:57;;;;;;;13.50;8.77;;;8.50;99.90;;;;;;10180781;29;20052;-75
2022/11/11 21:37:59;;;;;;;14.73;8.48;;;8.50;99.90;;;;;;10203216;29;20080;-77
2022/11/11 21:43:05;;;;;;;13.98;8.60;;;8.50;99.90;;;;;;10180087;29;20056;-76
2022/11/11 21:48:07;;;;;;;15.52;9.10;;;8.60;99.90;;;;;;10156514;29;20044;-78
2022/11/11 21:53:09;;;;;;;13.70;9.50;;;8.50;99.90;;;;;;10174664;29;20474;-74
2022/11/11 21:58:12;;;;;;;17.42;10.85;;;8.50;99.90;;;;;;10164338;29;20063;-74
2022/11/11 22:03:14;;;;;;;16.85;10.70;;;8.50;99.90;;;;;;10220144;29;20047;-74
2022/11/11 22:08:16;;;;;;;16.38;9.82;;;8.40;99.90;;;;;;10217649;29;20069;-74
2022/11/11 22:13:19;;;;;;;15.07;9.15;;;8.30;99.90;;;;;;10189385;29;20052;-74
2022/11/11 22:18:21;;;;;;;14.23;8.40;;;8.20;99.90;;;;;;10202357;29;20048;-76
2022/11/11 22:23:23;;;;;;;13.32;8.38;;;8.10;99.90;;;;;;10180253;29;20072;-75
2022/11/11 22:28:26;;;;;;;14.85;8.30;;;8.20;99.90;;;;;;10198507;29;20056;-78
2022/11/11 22:33:28;;;;;;;13.50;8.45;;;8.30;99.90;;;;;;10208240;29;20056;-74
2022/11/11 22:38:30;;;;;;;13.52;8.80;;;8.30;99.90;;;;;;10204534;29;20056;-74
2022/11/11 22:43:36;;;;;;;14.30;9.15;;;8.30;99.90;;;;;;10198292;29;20103;-75
2022/11/11 22:48:40;;;;;;;15.05;9.45;;;8.30;99.90;;;;;;10218498;29;20059;-75
2022/11/11 22:53:43;;;;;;;16.63;10.00;;;8.30;99.90;;;;;;10187778;29;20052;-74
2022/11/11 22:58:48;;;;;;;18.50;10.10;;;8.30;99.90;;;;;;10153209;29;20111;-75
